createdAt,value
2023-04-29T00:01:21.722Z,95847.63
2023-04-29T00:03:49.970Z,95811.59
2023-04-29T00:06:17.312Z,95817.97
2023-04-29T00:08:44.673Z,95845.44
2023-04-29T00:11:11.853Z,95810.41
2023-04-29T00:13:42.149Z,95843.03
2023-04-29T00:16:12.372Z,95838.66
2023-04-29T00:18:39.446Z,95802.97
2023-04-29T00:21:06.449Z,95814.72
2023-04-29T00:23:34.298Z,95822.09
2023-04-29T00:26:01.329Z,95800.28
2023-04-29T00:28:28.552Z,95809.25
2023-04-29T00:30:56.405Z,95821.94
2023-04-29T00:33:23.801Z,95804.53
2023-04-29T00:35:51.041Z,95826.06
2023-04-29T00:38:17.984Z,95826.38
2023-04-29T00:40:45.549Z,95803.47
2023-04-29T00:43:12.806Z,95830.97
2023-04-29T00:45:39.976Z,95816.91
2023-04-29T00:48:07.066Z,95813.75
2023-04-29T00:50:34.396Z,95780.44
2023-04-29T00:53:01.597Z,95808.69
2023-04-29T00:55:30.083Z,95810.13
2023-04-29T00:57:57.582Z,95814.72
2023-04-29T01:00:26.463Z,95786.06
2023-04-29T01:02:55.263Z,95787.25
2023-04-29T01:05:22.196Z,95806.03
2023-04-29T01:08:27.362Z,95823.91
2023-04-29T01:11:11.331Z,95800.88
2023-04-29T01:13:54.947Z,95808.59
2023-04-29T01:16:43.707Z,95795.09
2023-04-29T01:19:52.934Z,95801.34
2023-04-29T01:22:22.244Z,95804.97
2023-04-29T01:24:50.108Z,95808.19
2023-04-29T01:27:36.010Z,95791.25
2023-04-29T01:30:53.035Z,95798.16
2023-04-29T01:33:41.200Z,95799.59
2023-04-29T01:36:17.383Z,95811.41
2023-04-29T01:39:00.050Z,95768.00
2023-04-29T01:41:46.227Z,95790.00
2023-04-29T01:44:24.901Z,95778.06
2023-04-29T01:46:54.430Z,95801.16
2023-04-29T01:49:26.458Z,95759.44
2023-04-29T01:51:53.769Z,95803.03
2023-04-29T01:54:22.388Z,95812.16
2023-04-29T01:56:49.918Z,95807.63
2023-04-29T01:59:31.758Z,95798.34
2023-04-29T02:02:21.598Z,95808.13
2023-04-29T02:04:57.583Z,95807.84
2023-04-29T02:07:24.571Z,95813.44
2023-04-29T02:09:51.829Z,95784.56
2023-04-29T02:12:18.976Z,95803.44
2023-04-29T02:14:48.262Z,95807.94
2023-04-29T02:17:15.331Z,95768.56
2023-04-29T02:19:43.492Z,95804.00
2023-04-29T02:22:12.730Z,95829.09
2023-04-29T02:24:41.577Z,95810.38
2023-04-29T02:27:08.506Z,95809.94
2023-04-29T02:29:35.466Z,95806.25
2023-04-29T02:32:02.509Z,95806.34
2023-04-29T02:34:29.654Z,95817.75
2023-04-29T02:36:56.593Z,95804.03
2023-04-29T02:39:23.571Z,95826.78
2023-04-29T02:41:56.386Z,95811.38
2023-04-29T02:44:23.334Z,95800.75
2023-04-29T02:46:50.284Z,95812.03
2023-04-29T02:49:17.193Z,95841.00
2023-04-29T02:51:44.272Z,95822.28
2023-04-29T02:54:12.530Z,95800.84
2023-04-29T02:56:39.483Z,95820.69
2023-04-29T02:59:06.668Z,95825.16
2023-04-29T03:01:33.714Z,95784.84
2023-04-29T03:04:00.944Z,95813.28
2023-04-29T03:06:28.078Z,95820.47
2023-04-29T03:08:54.978Z,95800.69
2023-04-29T03:11:24.862Z,95818.28
2023-04-29T03:13:51.906Z,95834.09
2023-04-29T03:16:19.193Z,95832.03
2023-04-29T03:18:46.267Z,95814.31
2023-04-29T03:21:13.228Z,95814.69
2023-04-29T03:23:40.432Z,95811.22
2023-04-29T03:26:09.633Z,95815.06
2023-04-29T03:28:37.685Z,95779.84
2023-04-29T03:31:04.719Z,95807.41
2023-04-29T03:33:31.706Z,95807.72
2023-04-29T03:35:58.576Z,95784.97
2023-04-29T03:38:35.150Z,95818.63
2023-04-29T03:41:02.848Z,95797.53
2023-04-29T03:43:31.441Z,95808.41
2023-04-29T03:45:58.413Z,95814.06
2023-04-29T03:48:25.955Z,95817.03
2023-04-29T03:50:53.413Z,95825.16
2023-04-29T03:53:22.130Z,95798.56
2023-04-29T03:55:49.057Z,95824.09
2023-04-29T03:58:16.852Z,95758.53
2023-04-29T04:00:44.342Z,95795.22
2023-04-29T04:03:17.006Z,95795.53
2023-04-29T04:05:44.400Z,95822.34
2023-04-29T04:08:14.593Z,95812.47
2023-04-29T04:10:44.595Z,95832.03
2023-04-29T04:13:38.150Z,95836.22
2023-04-29T04:16:05.398Z,95838.41
2023-04-29T04:18:32.691Z,95802.16
2023-04-29T04:21:06.170Z,95825.47
2023-04-29T04:23:33.204Z,95838.34
2023-04-29T04:26:03.942Z,95814.59
2023-04-29T04:29:00.043Z,95844.28
2023-04-29T04:31:53.149Z,95810.66
2023-04-29T04:34:21.467Z,95851.31
2023-04-29T04:36:50.685Z,95854.38
2023-04-29T04:39:17.680Z,95855.94
2023-04-29T04:41:44.822Z,95863.97
2023-04-29T04:44:12.436Z,95863.72
2023-04-29T04:47:06.534Z,95863.06
2023-04-29T04:49:56.048Z,95871.84
2023-04-29T04:52:23.199Z,95857.34
2023-04-29T04:55:07.670Z,95876.22
2023-04-29T04:57:36.447Z,95875.25
2023-04-29T05:00:04.545Z,95863.03
2023-04-29T05:02:32.671Z,95868.66
2023-04-29T05:04:59.636Z,95891.38
2023-04-29T05:07:30.101Z,95876.13
2023-04-29T05:10:03.973Z,95884.13
2023-04-29T05:12:32.958Z,95858.66
2023-04-29T05:15:01.664Z,95853.25
2023-04-29T05:17:30.028Z,95876.78
2023-04-29T05:19:56.946Z,95864.34
2023-04-29T05:22:24.080Z,95856.31
2023-04-29T05:24:53.030Z,95903.91
2023-04-29T05:27:20.708Z,95890.59
2023-04-29T05:29:49.143Z,95881.38
2023-04-29T05:32:15.976Z,95887.94
2023-04-29T05:34:44.731Z,95902.56
2023-04-29T05:37:11.653Z,95919.94
2023-04-29T05:39:53.017Z,95899.84
2023-04-29T05:42:20.226Z,95925.44
2023-04-29T05:44:50.770Z,95912.13
2023-04-29T05:47:17.633Z,95897.84
2023-04-29T05:49:44.568Z,95870.69
2023-04-29T05:52:12.127Z,95885.22
2023-04-29T05:54:44.490Z,95920.84
2023-04-29T05:57:12.423Z,95911.78
2023-04-29T05:59:40.411Z,95923.34
2023-04-29T06:02:08.850Z,95891.03
2023-04-29T06:04:36.805Z,95901.91
2023-04-29T06:07:22.789Z,95919.59
2023-04-29T06:10:01.386Z,95931.72
2023-04-29T06:12:29.654Z,95906.00
2023-04-29T06:14:58.147Z,95928.72
2023-04-29T06:17:37.701Z,95948.34
2023-04-29T06:20:14.435Z,95933.94
2023-04-29T06:22:44.553Z,95935.50
2023-04-29T06:25:20.509Z,95928.94
2023-04-29T06:27:57.198Z,95957.25
2023-04-29T06:30:30.577Z,95947.66
2023-04-29T06:33:00.695Z,95952.31
2023-04-29T06:35:34.789Z,95909.59
2023-04-29T06:38:35.076Z,95953.84
2023-04-29T06:41:15.354Z,95988.44
2023-04-29T06:43:59.312Z,95967.63
2023-04-29T06:47:07.580Z,95961.34
2023-04-29T06:50:01.998Z,95981.41
2023-04-29T06:52:36.075Z,95970.81
2023-04-29T06:55:09.589Z,95969.63
2023-04-29T06:57:43.171Z,95973.03
2023-04-29T07:00:16.502Z,95980.81
2023-04-29T07:02:44.038Z,95978.28
2023-04-29T07:05:23.053Z,95995.09
2023-04-29T07:08:05.370Z,95972.53
2023-04-29T07:10:47.619Z,96000.41
2023-04-29T07:13:31.871Z,95976.56
2023-04-29T07:16:01.349Z,95988.25
2023-04-29T07:18:34.994Z,96002.22
2023-04-29T07:21:16.129Z,95993.34
2023-04-29T07:23:46.126Z,96015.81
2023-04-29T07:26:27.183Z,96012.16
2023-04-29T07:28:57.388Z,96020.19
2023-04-29T07:31:28.304Z,96022.81
2023-04-29T07:34:10.929Z,96020.53
2023-04-29T07:36:42.267Z,96022.91
2023-04-29T07:39:12.601Z,96016.00
2023-04-29T07:41:47.105Z,96004.03
2023-04-29T07:44:22.478Z,96008.97
2023-04-29T07:47:04.610Z,96007.53
2023-04-29T07:49:55.770Z,96044.44
2023-04-29T07:52:23.577Z,96040.00
2023-04-29T07:54:56.935Z,96033.16
2023-04-29T07:57:44.666Z,96058.81
2023-04-29T08:00:19.623Z,96052.81
2023-04-29T08:02:54.603Z,96054.28
2023-04-29T08:05:23.780Z,96058.13
2023-04-29T08:07:51.830Z,96064.72
2023-04-29T08:10:19.689Z,96058.63
2023-04-29T08:12:46.975Z,96063.63
2023-04-29T08:15:14.208Z,96058.31
2023-04-29T08:17:41.265Z,96061.81
2023-04-29T08:20:09.673Z,96034.34
2023-04-29T08:22:36.854Z,96068.19
2023-04-29T08:25:06.101Z,96074.88
2023-04-29T08:27:33.140Z,96056.34
2023-04-29T08:30:00.039Z,96041.03
2023-04-29T08:32:27.092Z,96075.47
2023-04-29T08:34:54.430Z,96060.28
2023-04-29T08:37:21.633Z,96068.41
2023-04-29T08:39:51.341Z,96073.50
2023-04-29T08:42:21.729Z,96086.84
2023-04-29T08:44:50.148Z,96061.31
2023-04-29T08:47:17.994Z,96057.63
2023-04-29T08:49:44.925Z,96088.06
2023-04-29T08:52:11.949Z,96073.81
2023-04-29T08:54:38.879Z,96067.59
2023-04-29T08:57:06.750Z,96069.97
2023-04-29T08:59:33.977Z,96084.91
2023-04-29T09:02:01.094Z,96067.91
2023-04-29T09:04:52.671Z,96098.69
2023-04-29T09:07:19.838Z,96104.59
2023-04-29T09:09:47.779Z,96062.94
2023-04-29T09:12:14.771Z,96078.09
2023-04-29T09:14:41.744Z,96083.09
2023-04-29T09:17:08.630Z,96071.56
2023-04-29T09:19:36.764Z,96105.31
2023-04-29T09:22:04.891Z,96110.16
2023-04-29T09:24:32.425Z,96111.44
2023-04-29T09:27:00.558Z,96118.56
2023-04-29T09:29:27.512Z,96068.53
2023-04-29T09:31:54.391Z,96090.09
2023-04-29T09:34:41.029Z,96080.44
2023-04-29T09:37:34.325Z,96121.31
2023-04-29T09:40:01.860Z,96064.19
2023-04-29T09:42:28.951Z,96110.59
2023-04-29T09:44:55.860Z,96127.00
2023-04-29T09:47:32.032Z,96137.47
2023-04-29T09:50:11.430Z,96142.53
2023-04-29T09:52:44.317Z,96115.56
2023-04-29T09:55:11.717Z,96141.31
2023-04-29T09:57:44.853Z,96131.66
2023-04-29T10:00:15.526Z,96115.06
2023-04-29T10:02:43.654Z,96133.72
2023-04-29T10:05:12.311Z,96137.72
2023-04-29T10:07:40.203Z,96115.41
2023-04-29T10:10:08.499Z,96135.03
2023-04-29T10:12:35.879Z,96111.59
2023-04-29T10:15:26.429Z,96142.47
2023-04-29T10:17:55.357Z,96141.34
2023-04-29T10:20:24.778Z,96138.56
2023-04-29T10:22:54.980Z,96141.72
2023-04-29T10:25:23.474Z,96144.88
2023-04-29T10:27:53.811Z,96128.34
2023-04-29T10:30:22.191Z,96090.16
2023-04-29T10:32:52.020Z,96138.72
2023-04-29T10:35:23.105Z,96135.69
2023-04-29T10:37:50.790Z,96131.78
2023-04-29T10:40:23.133Z,96113.25
2023-04-29T10:42:55.870Z,96138.94
2023-04-29T10:45:31.937Z,96141.06
2023-04-29T10:48:10.966Z,96139.91
2023-04-29T10:50:47.029Z,96143.38
2023-04-29T10:53:15.439Z,96145.78
2023-04-29T10:55:42.929Z,96151.84
2023-04-29T10:58:35.341Z,96146.09
2023-04-29T11:01:02.745Z,96141.97
2023-04-29T11:03:58.869Z,96155.63
2023-04-29T11:06:40.362Z,96153.91
2023-04-29T11:09:12.885Z,96152.75
2023-04-29T11:11:49.133Z,96152.06
2023-04-29T11:14:22.784Z,96154.81
2023-04-29T11:16:52.947Z,96152.53
2023-04-29T11:19:20.646Z,96126.97
2023-04-29T11:21:47.962Z,96134.81
2023-04-29T11:24:18.165Z,96161.34
2023-04-29T11:26:46.632Z,96156.47
2023-04-29T11:29:14.383Z,96126.63
2023-04-29T11:31:41.552Z,96133.81
2023-04-29T11:34:08.653Z,96156.47
2023-04-29T11:36:36.406Z,96156.59
2023-04-29T11:39:04.444Z,96171.16
2023-04-29T11:41:31.876Z,96124.88
2023-04-29T11:44:00.388Z,96189.56
2023-04-29T11:46:31.263Z,96114.41
2023-04-29T11:49:00.385Z,96161.94
2023-04-29T11:51:28.769Z,96181.03
2023-04-29T11:53:58.364Z,96190.66
2023-04-29T11:56:25.835Z,96178.97
2023-04-29T11:58:57.184Z,96177.41
2023-04-29T12:01:26.108Z,96149.78
2023-04-29T12:03:59.743Z,96186.47
2023-04-29T12:06:32.551Z,96153.78
2023-04-29T12:09:00.945Z,96181.78
2023-04-29T12:11:29.138Z,96150.03
2023-04-29T12:13:57.283Z,96168.66
2023-04-29T12:16:24.524Z,96190.56
2023-04-29T12:18:53.521Z,96160.72
2023-04-29T12:21:22.612Z,96171.84
2023-04-29T12:23:51.448Z,96173.13
2023-04-29T12:26:19.533Z,96197.66
2023-04-29T12:28:46.941Z,96159.28
2023-04-29T12:31:15.949Z,96192.91
2023-04-29T12:33:46.705Z,96192.97
2023-04-29T12:36:18.632Z,96177.25
2023-04-29T12:38:47.824Z,96194.56
2023-04-29T12:41:17.599Z,96186.66
2023-04-29T12:43:44.917Z,96188.97
2023-04-29T12:46:15.207Z,96190.50
2023-04-29T12:48:43.978Z,96190.81
2023-04-29T12:51:11.963Z,96188.59
2023-04-29T12:53:39.275Z,96191.88
2023-04-29T12:56:06.911Z,96190.31
2023-04-29T12:58:35.196Z,96210.97
2023-04-29T13:01:02.288Z,96208.06
2023-04-29T13:03:29.496Z,96184.03
2023-04-29T13:05:57.493Z,96192.75
2023-04-29T13:08:24.445Z,96199.44
2023-04-29T13:10:51.817Z,96198.56
2023-04-29T13:13:18.925Z,96187.22
2023-04-29T13:15:45.766Z,96197.25
2023-04-29T13:18:12.740Z,96182.22
2023-04-29T13:20:42.218Z,96164.78
2023-04-29T13:23:10.298Z,96202.44
2023-04-29T13:25:37.273Z,96193.84
2023-04-29T13:28:05.709Z,96197.13
2023-04-29T13:30:33.482Z,96183.78
2023-04-29T13:33:07.930Z,96155.13
2023-04-29T13:35:38.543Z,96213.81
2023-04-29T13:38:05.593Z,96174.88
2023-04-29T13:40:37.378Z,96208.09
2023-04-29T13:43:09.619Z,96197.91
2023-04-29T13:45:41.277Z,96209.63
2023-04-29T13:48:26.149Z,96188.97
2023-04-29T14:03:27.094Z,96195.56
2023-04-29T14:05:54.183Z,96194.91
2023-04-29T14:08:21.132Z,96194.91
2023-04-29T14:10:48.152Z,96182.13
2023-04-29T14:13:15.004Z,96222.63
2023-04-29T14:15:41.883Z,96202.72
2023-04-29T14:18:10.010Z,96204.63
2023-04-29T14:20:36.921Z,96220.56
2023-04-29T14:23:04.046Z,96203.34
2023-04-29T14:25:33.629Z,96216.84
2023-04-29T14:28:00.933Z,96225.03
2023-04-29T14:30:27.837Z,96215.00
2023-04-29T14:32:54.680Z,96234.00
2023-04-29T14:35:21.702Z,96217.91
2023-04-29T14:37:48.645Z,96202.09
2023-04-29T14:40:16.260Z,96238.72
2023-04-29T14:42:43.241Z,96248.22
2023-04-29T14:45:10.516Z,96216.44
2023-04-29T14:47:37.463Z,96243.91
2023-04-29T14:50:05.082Z,96229.78
2023-04-29T14:52:31.938Z,96253.56
2023-04-29T14:54:58.830Z,96229.50
2023-04-29T14:57:25.830Z,96236.94
2023-04-29T14:59:52.708Z,96251.38
2023-04-29T15:02:19.550Z,96238.63
2023-04-29T15:04:46.625Z,96250.22
2023-04-29T15:07:14.055Z,96222.00
2023-04-29T15:09:41.177Z,96242.44
2023-04-29T15:12:09.223Z,96266.56
2023-04-29T15:14:36.084Z,96277.69
2023-04-29T15:17:02.987Z,96245.03
2023-04-29T15:19:29.899Z,96243.28
2023-04-29T15:21:56.752Z,96279.94
2023-04-29T15:24:23.812Z,96256.97
2023-04-29T15:26:52.150Z,96279.84
2023-04-29T15:29:19.224Z,96239.28
2023-04-29T15:31:46.213Z,96257.13
2023-04-29T15:34:13.139Z,96248.94
2023-04-29T15:36:40.504Z,96288.91
2023-04-29T15:39:11.127Z,96275.44
2023-04-29T15:41:39.233Z,96288.91
2023-04-29T15:44:06.531Z,96280.19
2023-04-29T15:46:33.602Z,96289.00
2023-04-29T15:49:01.231Z,96286.16
2023-04-29T15:51:28.133Z,96304.13
2023-04-29T15:53:54.977Z,96301.97
2023-04-29T15:56:21.881Z,96264.72
2023-04-29T15:58:48.706Z,96295.72
2023-04-29T16:01:16.191Z,96278.41
2023-04-29T16:03:43.124Z,96297.19
2023-04-29T16:06:10.254Z,96283.38
2023-04-29T16:08:37.107Z,96319.47
2023-04-29T16:11:03.974Z,96325.41
2023-04-29T16:13:30.841Z,96318.13
2023-04-29T16:15:57.895Z,96332.47
2023-04-29T16:18:24.906Z,96306.44
2023-04-29T16:20:52.359Z,96309.31
2023-04-29T16:23:19.219Z,96322.13
2023-04-29T16:25:46.111Z,96338.88
2023-04-29T16:28:13.075Z,96324.66
2023-04-29T16:30:39.948Z,96328.63
2023-04-29T16:33:06.792Z,96333.81
2023-04-29T16:35:34.494Z,96355.22
2023-04-29T16:38:01.346Z,96305.56
2023-04-29T16:40:29.849Z,96354.88
2023-04-29T16:42:57.605Z,96338.69
2023-04-29T16:45:25.793Z,96346.28
2023-04-29T16:47:53.278Z,96359.19
2023-04-29T16:50:20.370Z,96364.69
2023-04-29T16:52:47.243Z,96367.78
2023-04-29T16:55:14.196Z,96357.53
2023-04-29T16:57:41.573Z,96355.66
2023-04-29T17:00:12.358Z,96355.66
2023-04-29T17:02:40.650Z,96359.50
2023-04-29T17:05:09.325Z,96368.09
2023-04-29T17:07:36.306Z,96387.84
2023-04-29T17:10:03.910Z,96379.00
2023-04-29T17:12:30.767Z,96382.78
2023-04-29T17:14:57.605Z,96365.63
2023-04-29T17:17:24.582Z,96366.97
2023-04-29T17:19:51.954Z,96370.03
2023-04-29T17:22:20.071Z,96373.44
2023-04-29T17:24:47.047Z,96386.13
2023-04-29T17:27:14.059Z,96388.81
2023-04-29T17:29:41.307Z,96386.22
2023-04-29T17:32:11.552Z,96358.09
2023-04-29T17:34:38.656Z,96380.31
2023-04-29T17:37:06.755Z,96379.44
2023-04-29T17:39:34.648Z,96403.53
2023-04-29T17:42:01.678Z,96416.09
2023-04-29T17:44:29.151Z,96411.41
2023-04-29T17:46:56.029Z,96395.03
2023-04-29T17:49:23.023Z,96409.63
2023-04-29T17:51:49.980Z,96399.28
2023-04-29T17:54:16.986Z,96415.53
2023-04-29T17:56:43.903Z,96424.03
2023-04-29T17:59:11.349Z,96435.28
2023-04-29T18:01:38.317Z,96434.88
2023-04-29T18:04:06.184Z,96422.94
2023-04-29T18:06:33.452Z,96407.63
2023-04-29T18:09:00.834Z,96421.75
2023-04-29T18:11:27.826Z,96416.06
2023-04-29T18:13:54.826Z,96421.03
2023-04-29T18:16:22.052Z,96433.91
2023-04-29T18:18:52.493Z,96453.75
2023-04-29T18:21:22.583Z,96420.75
2023-04-29T18:23:49.905Z,96447.16
2023-04-29T18:26:16.966Z,96407.91
2023-04-29T18:28:48.118Z,96443.06
2023-04-29T18:31:18.938Z,96425.31
2023-04-29T18:33:46.187Z,96435.97
2023-04-29T18:36:14.493Z,96431.47
2023-04-29T18:38:42.083Z,96423.13
2023-04-29T18:41:09.210Z,96457.25
2023-04-29T18:43:36.812Z,96442.50
2023-04-29T18:46:03.866Z,96450.44
2023-04-29T18:48:31.334Z,96445.69
2023-04-29T18:51:00.454Z,96454.06
2023-04-29T18:53:27.366Z,96465.19
2023-04-29T18:55:54.207Z,96463.06
2023-04-29T18:58:21.709Z,96474.66
2023-04-29T19:00:48.965Z,96473.75
2023-04-29T19:03:16.052Z,96466.22
2023-04-29T19:05:43.495Z,96493.69
2023-04-29T19:08:10.454Z,96491.78
2023-04-29T19:10:37.340Z,96489.69
2023-04-29T19:13:04.304Z,96474.50
2023-04-29T19:15:32.273Z,96475.75
2023-04-29T19:17:59.251Z,96470.31
2023-04-29T19:20:27.257Z,96503.97
2023-04-29T19:22:54.137Z,96510.16
2023-04-29T19:25:41.291Z,96510.63
2023-04-29T19:28:08.333Z,96490.66
2023-04-29T19:30:35.440Z,96453.94
2023-04-29T19:33:05.450Z,96503.28
2023-04-29T19:35:32.602Z,96508.69
2023-04-29T19:37:59.489Z,96505.16
2023-04-29T19:40:26.558Z,96532.72
2023-04-29T19:42:53.430Z,96506.25
2023-04-29T19:45:21.186Z,96486.09
2023-04-29T19:47:50.118Z,96474.28
2023-04-29T19:50:17.113Z,96532.72
2023-04-29T19:52:44.017Z,96514.28
2023-04-29T19:55:11.009Z,96521.13
2023-04-29T19:57:39.065Z,96525.31
2023-04-29T20:00:06.812Z,96517.09
2023-04-29T20:02:33.970Z,96544.56
2023-04-29T20:05:01.118Z,96486.09
2023-04-29T20:07:28.018Z,96535.53
2023-04-29T20:09:55.611Z,96538.69
2023-04-29T20:12:22.767Z,96527.03
2023-04-29T20:14:49.685Z,96538.97
2023-04-29T20:17:17.976Z,96533.72
2023-04-29T20:19:45.118Z,96499.13
2023-04-29T20:22:12.032Z,96544.88
2023-04-29T20:24:38.924Z,96526.13
2023-04-29T20:27:05.886Z,96528.75
2023-04-29T20:29:32.909Z,96530.13
2023-04-29T20:32:00.181Z,96503.81
2023-04-29T20:34:27.105Z,96521.16
2023-04-29T20:36:54.064Z,96533.72
2023-04-29T20:39:21.086Z,96504.56
2023-04-29T20:41:47.922Z,96540.84
2023-04-29T20:44:14.762Z,96527.84
2023-04-29T20:46:41.677Z,96503.66
2023-04-29T20:49:08.751Z,96519.00
2023-04-29T20:51:35.876Z,96532.66
2023-04-29T20:54:02.832Z,96536.69
2023-04-29T20:56:29.701Z,96548.00
2023-04-29T20:58:58.976Z,96530.00
2023-04-29T21:01:26.126Z,96561.97
2023-04-29T21:03:53.172Z,96528.59
2023-04-29T21:06:20.067Z,96531.25
2023-04-29T21:08:47.136Z,96537.28
2023-04-29T21:11:14.214Z,96506.91
2023-04-29T21:13:41.028Z,96558.56
2023-04-29T21:16:08.125Z,96545.06
2023-04-29T21:18:34.991Z,96524.56
2023-04-29T21:21:01.925Z,96567.09
2023-04-29T21:23:28.828Z,96538.22
2023-04-29T21:25:55.879Z,96576.41
2023-04-29T21:28:22.690Z,96507.06
2023-04-29T21:30:49.591Z,96551.13
2023-04-29T21:33:16.552Z,96534.94
2023-04-29T21:35:43.641Z,96557.16
2023-04-29T21:38:10.594Z,96585.06
2023-04-29T21:40:41.131Z,96541.00
2023-04-29T21:43:09.640Z,96559.94
2023-04-29T21:45:36.769Z,96542.09
2023-04-29T21:48:29.899Z,96586.78
2023-04-29T21:50:56.925Z,96558.56
2023-04-29T21:53:23.842Z,96562.91
2023-04-29T21:55:50.723Z,96541.00
2023-04-29T21:58:18.585Z,96546.28
2023-04-29T22:00:58.545Z,96551.72
2023-04-29T22:03:25.607Z,96548.13
2023-04-29T22:05:52.609Z,96566.91
2023-04-29T22:08:19.519Z,96559.78
2023-04-29T22:10:46.762Z,96558.56
2023-04-29T22:13:13.806Z,96576.88
2023-04-29T22:15:40.911Z,96584.91
2023-04-29T22:18:07.865Z,96560.84
2023-04-29T22:20:34.774Z,96559.31
2023-04-29T22:23:01.704Z,96560.09
2023-04-29T22:25:28.761Z,96537.72
2023-04-29T22:27:55.785Z,96555.72
2023-04-29T22:30:22.735Z,96567.50
2023-04-29T22:32:49.691Z,96595.44
2023-04-29T22:35:16.785Z,96564.09
2023-04-29T22:37:43.736Z,96580.22
2023-04-29T22:40:12.290Z,96564.84
2023-04-29T22:42:39.872Z,96576.69
2023-04-29T22:45:07.478Z,96558.97
2023-04-29T22:47:34.428Z,96538.13
2023-04-29T22:50:01.334Z,96588.28
2023-04-29T22:52:28.352Z,96573.66
2023-04-29T22:54:55.268Z,96556.13
2023-04-29T22:57:22.108Z,96576.00
2023-04-29T22:59:49.486Z,96585.28
2023-04-29T23:02:16.330Z,96582.19
2023-04-29T23:04:43.349Z,96544.44
2023-04-29T23:07:10.192Z,96577.38
2023-04-29T23:09:36.998Z,96557.69
2023-04-29T23:12:04.138Z,96548.06
2023-04-29T23:14:31.654Z,96571.50
2023-04-29T23:16:58.665Z,96562.66
2023-04-29T23:19:26.202Z,96562.34
2023-04-29T23:21:53.101Z,96563.59
2023-04-29T23:24:19.981Z,96578.47
2023-04-29T23:26:46.827Z,96581.75
2023-04-29T23:29:13.662Z,96577.50
2023-04-29T23:31:40.660Z,96605.28
2023-04-29T23:34:08.491Z,96584.06
2023-04-29T23:36:36.396Z,96564.06
2023-04-29T23:39:03.350Z,96569.06
2023-04-29T23:41:30.225Z,96568.41
2023-04-29T23:44:01.198Z,96596.25
2023-04-29T23:46:28.373Z,96546.69
2023-04-29T23:48:55.236Z,96598.28
2023-04-29T23:51:22.182Z,96599.41
2023-04-29T23:53:48.988Z,96565.19
2023-04-29T23:56:15.888Z,96573.59
2023-04-29T23:58:42.747Z,96583.59
